createdAt,value
2023-05-06T00:00:01.479Z,7.00
2023-05-06T00:05:00.405Z,7.80
2023-05-06T00:10:00.501Z,8.20
2023-05-06T00:15:00.412Z,8.50
2023-05-06T00:20:00.651Z,8.30
2023-05-06T00:25:00.534Z,8.90
2023-05-06T00:30:00.387Z,8.60
2023-05-06T00:35:00.421Z,8.40
2023-05-06T00:40:02.064Z,9.00
2023-05-06T00:45:00.391Z,8.50
2023-05-06T00:50:00.515Z,9.20
2023-05-06T00:55:00.443Z,8.80
2023-05-06T01:00:01.746Z,8.00
2023-05-06T01:05:00.563Z,8.40
2023-05-06T01:10:09.439Z,9.30
2023-05-06T01:15:09.843Z,9.80
2023-05-06T01:20:01.185Z,9.80
2023-05-06T01:25:00.403Z,9.70
2023-05-06T01:30:01.281Z,9.70
2023-05-06T01:35:20.325Z,9.70
2023-05-06T01:40:02.963Z,10.00
2023-05-06T01:45:03.237Z,10.60
2023-05-06T01:50:00.780Z,10.20
2023-05-06T01:55:00.581Z,11.50
2023-05-06T02:00:00.873Z,9.70
2023-05-06T02:05:00.409Z,8.40
2023-05-06T02:10:00.420Z,9.40
2023-05-06T02:15:00.409Z,10.60
2023-05-06T02:20:00.564Z,10.70
2023-05-06T02:25:00.452Z,10.30
2023-05-06T02:30:00.439Z,10.70
2023-05-06T02:35:00.444Z,10.00
2023-05-06T02:40:00.457Z,11.00
2023-05-06T02:45:00.509Z,10.90
2023-05-06T02:50:00.525Z,10.40
2023-05-06T02:55:01.152Z,10.70
2023-05-06T03:00:00.679Z,11.20
2023-05-06T03:05:00.436Z,10.70
2023-05-06T03:10:00.462Z,10.50
2023-05-06T03:15:00.420Z,10.10
2023-05-06T03:20:00.478Z,12.50
2023-05-06T03:25:00.410Z,12.00
2023-05-06T03:30:00.421Z,11.70
2023-05-06T03:35:00.424Z,11.60
2023-05-06T03:40:00.395Z,11.30
2023-05-06T03:45:00.406Z,10.60
2023-05-06T03:50:00.470Z,11.10
2023-05-06T03:55:00.419Z,9.70
2023-05-06T04:00:00.744Z,10.40
2023-05-06T04:05:00.469Z,10.40
2023-05-06T04:10:00.436Z,12.10
2023-05-06T04:15:00.454Z,11.90
2023-05-06T04:20:00.517Z,12.10
2023-05-06T04:25:00.412Z,11.20
2023-05-06T04:30:00.398Z,11.50
2023-05-06T04:35:00.418Z,11.70
2023-05-06T04:40:01.426Z,11.80
2023-05-06T04:45:00.387Z,12.00
2023-05-06T04:50:00.429Z,11.00
2023-05-06T04:55:00.988Z,11.20
2023-05-06T05:00:00.872Z,11.50
2023-05-06T05:05:00.473Z,11.00
2023-05-06T05:10:00.434Z,11.40
2023-05-06T05:15:00.535Z,9.90
2023-05-06T05:20:00.408Z,10.30
2023-05-06T05:25:00.392Z,10.60
2023-05-06T05:30:00.556Z,11.40
2023-05-06T05:35:00.411Z,11.20
2023-05-06T05:40:00.536Z,11.70
2023-05-06T05:45:00.424Z,11.10
2023-05-06T05:50:00.391Z,13.20
2023-05-06T05:55:00.430Z,12.50
2023-05-06T06:00:01.529Z,12.50
2023-05-06T06:05:00.583Z,12.70
2023-05-06T06:10:00.408Z,11.70
2023-05-06T06:15:00.448Z,11.50
2023-05-06T06:20:00.464Z,12.20
2023-05-06T06:25:00.425Z,11.10
2023-05-06T06:30:00.473Z,11.60
2023-05-06T06:35:00.395Z,11.10
2023-05-06T06:40:00.396Z,11.00
2023-05-06T06:45:00.804Z,11.50
2023-05-06T06:50:00.500Z,10.70
2023-05-06T06:55:01.203Z,11.20
2023-05-06T07:00:00.869Z,10.80
2023-05-06T07:05:01.753Z,10.90
2023-05-06T07:10:00.407Z,10.40
2023-05-06T07:15:00.410Z,10.80
2023-05-06T07:20:00.509Z,10.40
2023-05-06T07:25:00.453Z,10.10
2023-05-06T07:30:00.425Z,10.30
2023-05-06T07:35:00.461Z,11.10
2023-05-06T07:40:00.433Z,11.20
2023-05-06T07:45:00.401Z,10.40
2023-05-06T07:50:00.463Z,10.80
2023-05-06T07:55:00.441Z,11.50
2023-05-06T08:05:00.471Z,10.60
2023-05-06T08:10:00.405Z,10.70
2023-05-06T08:15:00.828Z,11.10
2023-05-06T08:20:00.534Z,11.10
2023-05-06T08:25:02.225Z,12.00
2023-05-06T08:30:00.460Z,11.40
2023-05-06T08:35:00.398Z,12.80
2023-05-06T08:40:00.533Z,11.00
2023-05-06T08:45:00.461Z,13.10
2023-05-06T08:50:00.473Z,11.90
2023-05-06T08:55:02.116Z,12.00
2023-05-06T09:00:02.303Z,12.00
2023-05-06T09:05:01.413Z,12.10
2023-05-06T09:10:05.012Z,11.30
2023-05-06T09:15:00.398Z,11.10
2023-05-06T09:20:00.598Z,10.70
2023-05-06T09:25:00.476Z,10.70
2023-05-06T09:30:10.683Z,11.30
2023-05-06T09:35:01.261Z,11.30
2023-05-06T09:40:00.493Z,10.70
2023-05-06T09:45:02.238Z,11.90
2023-05-06T09:50:01.685Z,11.40
2023-05-06T09:55:02.236Z,10.90
2023-05-06T10:00:01.977Z,11.50
2023-05-06T10:05:04.028Z,12.60
2023-05-06T10:10:02.242Z,11.70
2023-05-06T10:15:00.589Z,11.10
2023-05-06T10:20:01.365Z,11.30
2023-05-06T10:25:10.667Z,10.40
2023-05-06T10:30:00.493Z,10.70
2023-05-06T10:35:09.169Z,10.70
2023-05-06T10:40:01.893Z,10.90
2023-05-06T10:45:03.231Z,9.80
2023-05-06T10:50:20.303Z,9.40
2023-05-06T10:55:00.436Z,9.00
2023-05-06T11:00:00.884Z,6.70
2023-05-06T11:05:00.436Z,6.00
2023-05-06T11:10:02.469Z,5.60
2023-05-06T11:15:20.299Z,5.30
2023-05-06T11:20:20.343Z,6.50
2023-05-06T11:25:05.504Z,6.40
2023-05-06T11:30:00.447Z,6.10
2023-05-06T11:35:00.518Z,4.90
2023-05-06T11:40:00.452Z,4.40
2023-05-06T11:45:00.463Z,4.80
2023-05-06T11:50:02.343Z,4.50
2023-05-06T11:55:00.415Z,3.60
2023-05-06T12:00:00.677Z,3.20
2023-05-06T12:05:01.487Z,3.90
2023-05-06T12:10:00.839Z,3.40
2023-05-06T12:15:01.006Z,4.00
2023-05-06T12:20:00.447Z,1.70
2023-05-06T12:25:12.599Z,1.10
2023-05-06T12:30:00.748Z,1.80
2023-05-06T12:35:00.436Z,1.80
2023-05-06T12:40:00.603Z,2.40
2023-05-06T12:45:13.945Z,2.20
2023-05-06T12:50:00.395Z,2.50
2023-05-06T12:55:00.469Z,2.30
2023-05-06T13:00:00.856Z,2.60
2023-05-06T13:05:00.386Z,4.40
2023-05-06T13:10:00.469Z,2.70
2023-05-06T13:15:00.617Z,2.40
2023-05-06T13:20:00.471Z,3.30
2023-05-06T13:25:00.393Z,3.00
2023-05-06T13:30:00.442Z,2.80
2023-05-06T13:35:00.390Z,3.00
2023-05-06T13:40:00.417Z,2.60
2023-05-06T13:45:00.492Z,2.90
2023-05-06T13:50:00.372Z,2.70
2023-05-06T13:55:00.407Z,2.40
2023-05-06T14:00:00.779Z,2.60
2023-05-06T14:05:00.441Z,3.20
2023-05-06T14:10:00.455Z,2.50
2023-05-06T14:15:00.427Z,2.20
2023-05-06T14:20:01.410Z,2.00
2023-05-06T14:25:00.393Z,2.50
2023-05-06T14:30:01.005Z,2.00
2023-05-06T14:35:00.652Z,1.60
2023-05-06T14:40:00.396Z,1.80
2023-05-06T14:45:00.552Z,1.50
2023-05-06T14:50:00.377Z,1.60
2023-05-06T14:55:00.975Z,1.50
2023-05-06T15:00:03.388Z,1.30
2023-05-06T15:05:03.759Z,1.40
2023-05-06T15:10:00.630Z,1.40
2023-05-06T15:15:00.569Z,2.40
2023-05-06T15:20:00.420Z,1.40
2023-05-06T15:25:00.417Z,1.40
2023-05-06T15:30:00.493Z,2.10
2023-05-06T15:35:00.452Z,1.90
2023-05-06T15:40:00.569Z,1.70
2023-05-06T15:45:00.431Z,2.10
2023-05-06T15:50:01.556Z,1.30
2023-05-06T15:55:00.409Z,1.00
2023-05-06T16:00:02.251Z,1.60
2023-05-06T16:05:00.561Z,1.30
2023-05-06T16:10:00.706Z,1.10
2023-05-06T16:15:00.482Z,1.20
2023-05-06T16:20:00.389Z,1.80
2023-05-06T16:25:00.434Z,1.90
2023-05-06T16:30:00.511Z,1.60
2023-05-06T16:35:00.569Z,1.10
2023-05-06T16:40:00.588Z,1.30
2023-05-06T16:45:00.423Z,1.50
2023-05-06T16:50:00.467Z,1.20
2023-05-06T16:55:00.786Z,1.10
2023-05-06T17:00:00.748Z,1.30
2023-05-06T17:05:00.404Z,1.40
2023-05-06T17:10:00.690Z,1.40
2023-05-06T17:15:02.641Z,1.70
2023-05-06T17:20:00.450Z,1.60
2023-05-06T17:25:00.556Z,1.60
2023-05-06T17:30:00.418Z,1.90
2023-05-06T17:35:00.432Z,1.90
2023-05-06T17:40:00.464Z,1.60
2023-05-06T17:45:00.439Z,1.50
2023-05-06T17:50:00.430Z,1.60
2023-05-06T17:55:11.802Z,1.60
2023-05-06T18:00:00.693Z,2.30
2023-05-06T18:05:00.501Z,2.30
2023-05-06T18:10:00.574Z,2.60
2023-05-06T18:15:00.418Z,2.00
2023-05-06T18:20:00.435Z,2.20
2023-05-06T18:25:00.595Z,2.10
2023-05-06T18:30:00.486Z,2.40
2023-05-06T18:35:01.105Z,1.90
2023-05-06T18:40:00.412Z,2.10
2023-05-06T18:45:01.146Z,2.50
2023-05-06T18:50:00.395Z,3.90
2023-05-06T18:55:00.837Z,2.30
2023-05-06T19:00:00.766Z,2.70
2023-05-06T19:05:00.431Z,2.30
2023-05-06T19:10:00.462Z,1.90
2023-05-06T19:15:00.475Z,2.20
2023-05-06T19:20:00.401Z,2.00
2023-05-06T19:25:00.459Z,2.30
2023-05-06T19:30:00.461Z,2.50
2023-05-06T19:35:01.089Z,2.30
2023-05-06T19:40:01.212Z,2.80
2023-05-06T19:45:08.213Z,2.60
2023-05-06T19:50:00.403Z,3.20
2023-05-06T19:55:00.501Z,2.40
2023-05-06T20:00:01.567Z,3.10
2023-05-06T20:05:00.776Z,3.10
2023-05-06T20:10:00.456Z,3.10
2023-05-06T20:15:00.521Z,4.20
2023-05-06T20:20:02.745Z,3.50
2023-05-06T20:25:11.804Z,3.80
2023-05-06T20:30:00.850Z,3.40
2023-05-06T20:35:00.395Z,3.80
2023-05-06T20:40:01.137Z,3.80
2023-05-06T20:45:00.982Z,3.20
2023-05-06T20:50:00.507Z,2.80
2023-05-06T20:55:00.617Z,2.80
2023-05-06T21:00:01.462Z,3.50
2023-05-06T21:05:00.457Z,3.70
2023-05-06T21:10:01.951Z,3.20
2023-05-06T21:15:00.669Z,3.10
2023-05-06T21:20:00.411Z,4.10
2023-05-06T21:35:01.182Z,3.80
2023-05-06T21:40:00.484Z,4.20
2023-05-06T21:45:00.390Z,3.90
2023-05-06T21:55:00.461Z,4.40
2023-05-06T22:05:00.405Z,4.70
2023-05-06T22:10:00.649Z,4.90
2023-05-06T22:15:00.485Z,5.10
2023-05-06T22:20:00.472Z,5.10
2023-05-06T22:25:00.408Z,5.70
2023-05-06T22:30:00.437Z,5.70
2023-05-06T22:35:00.397Z,5.20
2023-05-06T22:40:00.574Z,5.80
2023-05-06T22:45:00.572Z,6.10
2023-05-06T22:50:00.459Z,5.20
2023-05-06T22:55:00.449Z,5.70
2023-05-06T23:00:00.899Z,5.80
2023-05-06T23:05:00.384Z,5.80
2023-05-06T23:10:00.691Z,6.90
2023-05-06T23:15:00.590Z,7.50
2023-05-06T23:20:00.444Z,6.50
2023-05-06T23:25:00.427Z,6.90
2023-05-06T23:30:00.510Z,6.60
2023-05-06T23:35:00.824Z,6.60
2023-05-06T23:40:00.410Z,8.60
2023-05-06T23:45:00.413Z,7.80
2023-05-06T23:50:00.417Z,7.30
2023-05-06T23:55:00.403Z,7.80
